Time;durP1;ratioP1;P1;durP2;ratioP2;P2;SDS_P1;SDS_P2;PMS_P1;PMS_P2;Temp;Humidity;BMP_temperature;BMP_pressure;BME280_temperature;BME280_humidity;BME280_pressure;Samples;Min_cycle;Max_cycle;Signal;HPM_P1;HPM_P2
2021/06/19 00:01:19;;;;;;;5.53;1.50;;;16.60;57.40;;;;;;4230977;27;20075;-49
2021/06/19 00:03:21;;;;;;;9.68;1.65;;;16.60;57.90;;;;;;4228960;27;20389;-51
2021/06/19 00:05:25;;;;;;;5.05;1.42;;;;;;;;;;4227196;27;20035;-53
2021/06/19 00:07:27;;;;;;;6.90;1.42;;;16.50;57.50;;;;;;4216500;27;20036;-56
2021/06/19 00:09:31;;;;;;;7.18;2.25;;;16.50;57.40;;;;;;4230183;27;20097;-54
2021/06/19 00:11:33;;;;;;;5.47;1.13;;;16.50;57.40;;;;;;4230682;27;20035;-51
2021/06/19 00:13:35;;;;;;;8.43;1.80;;;16.50;57.50;;;;;;4230059;27;20517;-53
2021/06/19 00:15:37;;;;;;;4.97;1.25;;;;;;;;;;4223683;27;20111;-52
2021/06/19 00:17:39;;;;;;;5.10;1.52;;;;;;;;;;4228060;27;20384;-55
2021/06/19 00:19:41;;;;;;;4.85;1.48;;;;;;;;;;4229978;27;20276;-52
2021/06/19 00:21:43;;;;;;;4.60;1.38;;;;;;;;;;4229775;27;20551;-49
2021/06/19 00:23:45;;;;;;;7.10;2.05;;;;;;;;;;4228696;27;20187;-53
2021/06/19 00:25:47;;;;;;;5.68;1.58;;;;;;;;;;4224519;27;20128;-53
2021/06/19 00:27:50;;;;;;;3.28;1.40;;;16.40;57.60;;;;;;4229991;27;20033;-52
2021/06/19 00:29:52;;;;;;;2.90;1.52;;;16.30;57.80;;;;;;4234119;27;20164;-52
2021/06/19 00:31:54;;;;;;;3.78;1.20;;;16.20;57.80;;;;;;4225453;27;20035;-50
2021/06/19 00:33:58;;;;;;;3.80;1.40;;;16.20;57.80;;;;;;4228975;27;20514;-54
2021/06/19 00:36:00;;;;;;;3.78;1.30;;;16.20;57.80;;;;;;4230778;27;20030;-51
2021/06/19 00:38:02;;;;;;;2.83;1.45;;;16.20;57.80;;;;;;4228161;27;20026;-52
2021/06/19 00:40:08;;;;;;;2.05;1.27;;;16.10;57.80;;;;;;4233678;27;20523;-54
2021/06/19 00:42:10;;;;;;;4.32;1.40;;;16.10;57.80;;;;;;4230380;27;20076;-54
2021/06/19 00:44:20;;;;;;;3.22;1.23;;;16.10;57.80;;;;;;4227669;27;20053;-52
2021/06/19 00:46:22;;;;;;;1.85;1.08;;;16.10;57.80;;;;;;4231295;27;20035;-51
2021/06/19 00:48:27;;;;;;;3.67;1.27;;;16.10;57.80;;;;;;4210533;27;20536;-49
2021/06/19 00:50:29;;;;;;;3.83;1.35;;;16.10;57.80;;;;;;4225710;27;20034;-51
2021/06/19 00:52:31;;;;;;;2.60;1.13;;;16.00;57.80;;;;;;4232838;27;20027;-53
2021/06/19 00:54:34;;;;;;;2.53;1.20;;;16.00;57.80;;;;;;4228639;27;20027;-51
2021/06/19 00:56:37;;;;;;;2.67;1.30;;;16.00;57.90;;;;;;4233369;27;20031;-55
2021/06/19 00:58:40;;;;;;;2.55;1.25;;;16.00;57.90;;;;;;4208432;27;20199;-50
2021/06/19 01:00:42;;;;;;;3.15;1.42;;;16.00;57.90;;;;;;4223596;27;20039;-51
2021/06/19 01:02:47;;;;;;;3.75;1.05;;;16.00;57.90;;;;;;4230054;27;20720;-53
2021/06/19 01:04:49;;;;;;;2.22;1.15;;;16.00;58.00;;;;;;4226847;27;20028;-52
2021/06/19 01:06:52;;;;;;;2.92;1.40;;;15.90;57.90;;;;;;4230118;27;20031;-52
2021/06/19 01:08:54;;;;;;;3.03;1.30;;;15.90;58.00;;;;;;4223341;27;20015;-53
2021/06/19 01:10:56;;;;;;;2.95;1.45;;;15.90;58.00;;;;;;4212149;28;20057;-53
2021/06/19 01:13:00;;;;;;;2.35;1.08;;;15.90;58.10;;;;;;4231316;27;20101;-53
2021/06/19 01:15:03;;;;;;;2.92;1.13;;;15.90;58.10;;;;;;4225960;27;20027;-53
2021/06/19 01:17:05;;;;;;;2.95;1.40;;;15.90;58.20;;;;;;4228845;27;20064;-51
2021/06/19 01:19:07;;;;;;;2.13;1.10;;;15.90;58.20;;;;;;4227994;27;20031;-53
2021/06/19 01:21:14;;;;;;;2.10;1.13;;;15.90;58.50;;;;;;4230198;27;20270;-53
2021/06/19 01:23:16;;;;;;;2.97;1.27;;;15.90;58.80;;;;;;4235993;27;20034;-51
2021/06/19 01:25:32;;;;;;;3.58;1.35;;;15.90;59.00;;;;;;4229432;27;20119;-52
2021/06/19 01:27:35;;;;;;;2.58;1.23;;;15.90;59.20;;;;;;4233025;27;20137;-55
2021/06/19 01:29:37;;;;;;;3.50;1.40;;;15.90;59.30;;;;;;4222368;27;20031;-55
2021/06/19 01:31:40;;;;;;;3.45;1.50;;;15.90;59.50;;;;;;4228450;27;20594;-54
2021/06/19 01:33:45;;;;;;;2.17;1.20;;;15.80;59.50;;;;;;4228887;27;20051;-51
2021/06/19 01:35:47;;;;;;;3.17;1.40;;;15.80;59.60;;;;;;4226757;27;20066;-48
2021/06/19 01:37:52;;;;;;;3.33;1.17;;;15.80;59.80;;;;;;4235573;27;20050;-52
2021/06/19 01:40:06;;;;;;;4.03;1.60;;;15.80;59.80;;;;;;4229861;27;20391;-51
2021/06/19 01:42:07;;;;;;;;;;;15.80;59.90;;;;;;4234234;27;20035;-53
2021/06/19 01:44:12;;;;;;;2.00;1.10;;;15.80;59.80;;;;;;4232363;27;20047;-52
2021/06/19 01:46:15;;;;;;;3.90;1.20;;;15.80;60.10;;;;;;4234613;27;20097;-54
2021/06/19 01:48:17;;;;;;;2.20;1.30;;;15.80;60.10;;;;;;4238368;27;20279;-49
2021/06/19 01:50:23;;;;;;;3.90;1.20;;;15.80;60.10;;;;;;4235974;27;20027;-49
2021/06/19 01:52:25;;;;;;;1.83;1.05;;;15.80;60.10;;;;;;4228727;27;20023;-51
2021/06/19 01:54:37;;;;;;;2.97;1.42;;;15.80;60.90;;;;;;4231400;27;20024;-49
2021/06/19 01:56:39;;;;;;;3.13;1.50;;;15.80;60.20;;;;;;4234052;27;20109;-54
2021/06/19 01:58:42;;;;;;;1.73;1.10;;;15.70;60.30;;;;;;4230294;27;20639;-53
2021/06/19 02:00:44;;;;;;;2.92;1.48;;;15.80;60.50;;;;;;4229100;27;20046;-50
2021/06/19 02:02:46;;;;;;;2.80;1.50;;;15.70;60.50;;;;;;4232728;27;20043;-48
2021/06/19 02:04:48;;;;;;;3.63;1.30;;;15.70;60.50;;;;;;4227547;27;20019;-51
2021/06/19 02:06:51;;;;;;;2.10;1.27;;;15.70;60.50;;;;;;4227374;27;20384;-49
2021/06/19 02:09:08;;;;;;;1.80;1.35;;;15.70;60.60;;;;;;4232412;27;20043;-46
2021/06/19 02:11:10;;;;;;;4.38;1.45;;;15.70;60.70;;;;;;4226814;27;20076;-47
2021/06/19 02:13:13;;;;;;;2.50;1.15;;;15.70;60.90;;;;;;4227603;27;20398;-52
2021/06/19 02:15:15;;;;;;;1.95;1.08;;;15.70;60.90;;;;;;4209981;28;20062;-53
2021/06/19 02:17:18;;;;;;;1.67;1.13;;;15.70;61.00;;;;;;4233523;27;20502;-51
2021/06/19 02:19:20;;;;;;;3.22;1.40;;;15.70;61.00;;;;;;4222402;27;20061;-53
2021/06/19 02:21:23;;;;;;;2.40;1.20;;;15.70;61.10;;;;;;4231020;27;20042;-52
2021/06/19 02:23:26;;;;;;;2.30;1.30;;;15.70;61.10;;;;;;4230619;27;20058;-53
2021/06/19 02:25:30;;;;;;;2.28;1.35;;;15.70;61.10;;;;;;4233100;27;20031;-54
2021/06/19 02:27:32;;;;;;;2.00;1.30;;;15.70;61.10;;;;;;4232508;27;20096;-55
2021/06/19 02:29:34;;;;;;;2.72;1.23;;;15.70;61.10;;;;;;4230510;27;20029;-56
2021/06/19 02:31:36;;;;;;;1.65;1.17;;;15.70;61.10;;;;;;4230322;27;20034;-54
2021/06/19 02:33:38;;;;;;;1.85;1.00;;;15.70;61.10;;;;;;4236351;27;20102;-50
2021/06/19 02:35:44;;;;;;;2.25;1.30;;;15.70;61.20;;;;;;4234109;27;20715;-53
2021/06/19 02:37:47;;;;;;;2.80;1.10;;;15.70;61.30;;;;;;4232092;27;20035;-55
2021/06/19 02:39:49;;;;;;;1.10;0.93;;;15.60;61.20;;;;;;4223783;27;20134;-53
2021/06/19 02:41:51;;;;;;;2.53;1.20;;;15.70;61.30;;;;;;4228933;27;20294;-53
2021/06/19 02:43:53;;;;;;;2.08;1.38;;;15.70;61.10;;;;;;4223281;27;20103;-55
2021/06/19 02:45:59;;;;;;;1.83;1.10;;;15.70;61.20;;;;;;4226107;27;20019;-54
2021/06/19 02:48:01;;;;;;;1.60;0.90;;;15.70;61.60;;;;;;4232521;27;20054;-56
2021/06/19 02:50:06;;;;;;;2.53;1.13;;;15.70;61.20;;;;;;4223303;27;20088;-52
2021/06/19 02:52:09;;;;;;;3.03;1.30;;;15.60;60.90;;;;;;4227157;27;20102;-51
2021/06/19 02:54:11;;;;;;;2.28;1.40;;;15.70;60.80;;;;;;4224700;27;20493;-50
2021/06/19 02:56:13;;;;;;;1.92;0.93;;;15.60;60.80;;;;;;4222710;27;20109;-52
2021/06/19 02:58:17;;;;;;;1.50;1.00;;;15.60;60.80;;;;;;4229491;27;20019;-57
2021/06/19 03:00:20;;;;;;;2.17;1.10;;;15.60;60.90;;;;;;4227414;27;20093;-56
2021/06/19 03:02:21;;;;;;;;;;;15.60;61.70;;;;;;4221846;27;20327;-53
2021/06/19 03:04:23;;;;;;;2.28;1.05;;;15.60;61.00;;;;;;4223052;27;19923;-57
2021/06/19 03:06:26;;;;;;;2.17;1.30;;;15.60;61.40;;;;;;4227855;27;20070;-56
2021/06/19 03:08:29;;;;;;;1.80;1.13;;;15.60;61.40;;;;;;4221171;27;20644;-54
2021/06/19 03:10:36;;;;;;;2.97;1.20;;;15.60;61.40;;;;;;4227524;27;20095;-55
2021/06/19 03:12:39;;;;;;;3.05;1.27;;;15.60;62.30;;;;;;4226907;27;20245;-57
2021/06/19 03:14:42;;;;;;;2.03;1.30;;;15.60;61.90;;;;;;4226205;27;20030;-55
2021/06/19 03:16:46;;;;;;;1.55;1.27;;;15.60;61.70;;;;;;4223698;27;20543;-52
2021/06/19 03:18:47;;;;;;;;;;;15.60;61.70;;;;;;4224082;27;20353;-55
2021/06/19 03:20:50;;;;;;;2.72;1.45;;;15.60;61.80;;;;;;4206051;28;19912;-53
2021/06/19 03:22:59;;;;;;;2.15;1.40;;;15.60;62.70;;;;;;4204629;27;20489;-57
2021/06/19 03:25:01;;;;;;;3.38;1.70;;;15.60;63.60;;;;;;4226208;27;20117;-55
2021/06/19 03:27:04;;;;;;;3.47;1.40;;;15.60;63.00;;;;;;4223028;27;20311;-51
2021/06/19 03:29:07;;;;;;;1.70;1.35;;;15.60;62.80;;;;;;4225223;27;20039;-56
2021/06/19 03:31:09;;;;;;;5.22;1.42;;;15.60;63.30;;;;;;4225772;27;20352;-56
2021/06/19 03:33:12;;;;;;;1.92;1.40;;;15.60;62.60;;;;;;4225608;27;20019;-55
2021/06/19 03:35:15;;;;;;;3.55;1.65;;;15.60;63.20;;;;;;4223602;27;20027;-52
2021/06/19 03:37:17;;;;;;;1.90;1.27;;;15.60;62.70;;;;;;4229340;27;20449;-57
2021/06/19 03:39:19;;;;;;;2.30;1.30;;;15.60;62.50;;;;;;4227670;27;20279;-52
2021/06/19 03:41:22;;;;;;;3.28;1.13;;;15.60;62.50;;;;;;4236605;27;20076;-52
2021/06/19 03:43:24;;;;;;;2.75;1.45;;;15.60;62.50;;;;;;4219145;27;20483;-56
2021/06/19 03:45:29;;;;;;;2.75;1.20;;;15.60;62.40;;;;;;4215078;27;20423;-57
2021/06/19 03:47:32;;;;;;;2.17;1.15;;;15.60;62.50;;;;;;4198095;28;20092;-54
2021/06/19 03:49:37;;;;;;;2.75;1.23;;;15.60;62.50;;;;;;4219368;27;20027;-56
2021/06/19 03:51:39;;;;;;;3.40;1.30;;;15.60;62.60;;;;;;4218974;27;20254;-56
2021/06/19 03:53:42;;;;;;;2.15;1.52;;;15.60;62.70;;;;;;4215269;27;20230;-57
2021/06/19 03:55:44;;;;;;;2.15;1.30;;;15.60;62.80;;;;;;4218466;27;20123;-56
2021/06/19 03:57:46;;;;;;;3.28;1.20;;;15.60;62.80;;;;;;4214513;27;20026;-58
2021/06/19 03:59:49;;;;;;;2.33;1.20;;;15.60;63.50;;;;;;4218884;27;20216;-54
2021/06/19 04:01:51;;;;;;;2.15;1.27;;;15.60;63.10;;;;;;4218178;27;20131;-57
2021/06/19 04:03:53;;;;;;;2.60;1.30;;;15.60;63.00;;;;;;4227223;27;20110;-58
2021/06/19 04:05:55;;;;;;;1.85;1.35;;;15.60;63.00;;;;;;4223268;27;20023;-55
2021/06/19 04:07:58;;;;;;;2.30;1.08;;;15.60;63.10;;;;;;4231658;27;20019;-57
2021/06/19 04:10:00;;;;;;;3.35;1.38;;;15.60;64.50;;;;;;4224119;27;20032;-54
2021/06/19 04:12:03;;;;;;;2.33;1.23;;;15.60;63.80;;;;;;4232159;27;20034;-55
2021/06/19 04:14:05;;;;;;;1.83;1.23;;;15.60;63.40;;;;;;4229019;27;20365;-56
2021/06/19 04:16:09;;;;;;;3.30;1.30;;;15.60;63.50;;;;;;4208685;28;20346;-57
2021/06/19 04:18:11;;;;;;;1.90;0.93;;;15.60;63.90;;;;;;4229870;27;20020;-54
2021/06/19 04:20:15;;;;;;;1.67;1.25;;;15.60;64.80;;;;;;4228821;27;20024;-56
2021/06/19 04:22:17;;;;;;;2.38;1.05;;;15.60;65.40;;;;;;4224752;27;20126;-55
2021/06/19 04:24:20;;;;;;;3.10;1.13;;;15.60;65.40;;;;;;4225614;27;20353;-55
2021/06/19 04:26:23;;;;;;;3.60;1.50;;;15.60;65.20;;;;;;4227878;27;20108;-56
2021/06/19 04:28:25;;;;;;;1.95;1.25;;;15.60;66.70;;;;;;4216544;27;20038;-55
2021/06/19 04:30:27;;;;;;;1.70;1.00;;;15.60;66.60;;;;;;4224227;27;20404;-56
2021/06/19 04:32:30;;;;;;;4.28;1.60;;;15.60;66.40;;;;;;4217430;27;20035;-54
2021/06/19 04:34:35;;;;;;;2.53;1.27;;;15.60;66.70;;;;;;4224804;27;20040;-56
2021/06/19 04:36:37;;;;;;;1.80;0.98;;;15.60;66.10;;;;;;4220686;27;20172;-57
2021/06/19 04:38:39;;;;;;;1.38;1.15;;;15.60;66.60;;;;;;4222702;27;20023;-57
2021/06/19 04:40:47;;;;;;;1.73;1.20;;;15.70;66.10;;;;;;4203140;27;20110;-56
2021/06/19 04:42:58;;;;;;;3.42;1.38;;;15.70;66.30;;;;;;4221771;27;20537;-55
2021/06/19 04:45:02;;;;;;;1.88;1.23;;;15.60;66.20;;;;;;4219430;27;20444;-56
2021/06/19 04:47:04;;;;;;;2.05;1.00;;;15.60;66.20;;;;;;4204877;27;20024;-57
2021/06/19 04:49:06;;;;;;;1.77;1.02;;;15.60;66.00;;;;;;4223256;27;20046;-55
2021/06/19 04:51:09;;;;;;;3.92;1.27;;;15.70;66.00;;;;;;4225588;27;20031;-55
2021/06/19 04:53:13;;;;;;;2.90;1.42;;;15.60;66.90;;;;;;4214834;27;20024;-53
2021/06/19 04:55:18;;;;;;;2.42;1.50;;;15.60;66.00;;;;;;4214993;27;20090;-58
2021/06/19 04:57:20;;;;;;;3.35;1.10;;;15.60;65.60;;;;;;4221266;27;20072;-57
2021/06/19 04:59:22;;;;;;;4.40;1.10;;;15.60;66.50;;;;;;4222552;27;20069;-57
2021/06/19 05:01:24;;;;;;;2.03;1.20;;;15.60;66.00;;;;;;4224825;27;20110;-53
2021/06/19 05:03:26;;;;;;;4.88;1.23;;;15.60;65.50;;;;;;4202753;28;20526;-56
2021/06/19 05:05:29;;;;;;;2.42;1.10;;;15.60;65.80;;;;;;4225396;27;20050;-58
2021/06/19 05:07:33;;;;;;;3.72;1.52;;;15.60;65.90;;;;;;4220777;27;20031;-56
2021/06/19 05:09:35;;;;;;;1.92;1.13;;;15.60;66.00;;;;;;4219140;27;20115;-58
2021/06/19 05:11:40;;;;;;;1.70;1.15;;;15.60;66.10;;;;;;4214774;27;20121;-56
2021/06/19 05:13:42;;;;;;;2.55;1.35;;;15.60;66.20;;;;;;4206480;27;20520;-57
2021/06/19 05:15:45;;;;;;;2.53;1.17;;;15.60;66.10;;;;;;4225987;27;20113;-55
2021/06/19 05:17:47;;;;;;;2.70;1.15;;;15.60;66.00;;;;;;4228127;27;20031;-58
2021/06/19 05:19:50;;;;;;;1.48;1.02;;;15.60;66.00;;;;;;4222909;27;20424;-57
2021/06/19 05:21:52;;;;;;;3.50;1.08;;;15.60;66.40;;;;;;4222734;27;20049;-56
2021/06/19 05:23:54;;;;;;;5.03;1.30;;;15.60;66.20;;;;;;4227019;27;20597;-54
2021/06/19 05:25:56;;;;;;;2.53;1.05;;;15.60;66.10;;;;;;4228756;27;20033;-56
2021/06/19 05:27:58;;;;;;;3.83;1.17;;;15.60;66.70;;;;;;4229349;27;20034;-56
2021/06/19 05:30:00;;;;;;;3.78;1.48;;;15.60;67.30;;;;;;4235500;27;20058;-57
2021/06/19 05:32:03;;;;;;;1.95;1.40;;;15.60;67.40;;;;;;4227537;27;20081;-57
2021/06/19 05:34:05;;;;;;;2.85;1.27;;;15.60;67.30;;;;;;4226098;27;20354;-57
2021/06/19 05:36:07;;;;;;;2.28;1.60;;;15.60;67.00;;;;;;4212533;27;20039;-57
2021/06/19 05:38:09;;;;;;;2.22;1.40;;;15.70;67.50;;;;;;4229121;27;20020;-53
2021/06/19 05:40:11;;;;;;;4.00;1.60;;;15.70;66.70;;;;;;4228070;27;20091;-57
2021/06/19 05:42:14;;;;;;;5.65;1.73;;;15.70;66.50;;;;;;4230213;27;20042;-57
2021/06/19 05:44:17;;;;;;;2.47;1.50;;;15.60;66.90;;;;;;4229038;27;20593;-57
2021/06/19 05:46:19;;;;;;;5.38;1.80;;;15.60;67.10;;;;;;4231234;27;20551;-57
2021/06/19 05:48:21;;;;;;;6.75;2.00;;;15.60;67.10;;;;;;4228312;27;20022;-57
2021/06/19 05:50:24;;;;;;;5.88;1.95;;;15.70;67.90;;;;;;4223394;27;20137;-57
2021/06/19 05:52:26;;;;;;;5.68;2.00;;;15.70;67.70;;;;;;4223028;27;20125;-57
2021/06/19 05:54:29;;;;;;;2.53;1.60;;;15.70;67.60;;;;;;4222374;27;20733;-56
2021/06/19 05:56:31;;;;;;;6.10;2.05;;;15.70;67.90;;;;;;4226337;27;20449;-57
2021/06/19 05:58:34;;;;;;;14.20;2.28;;;15.70;68.00;;;;;;4227049;27;20050;-57
2021/06/19 06:00:39;;;;;;;4.63;1.88;;;15.70;67.60;;;;;;4227448;27;20019;-57
2021/06/19 06:02:43;;;;;;;5.63;2.40;;;15.70;67.40;;;;;;4221071;27;20218;-56
2021/06/19 06:04:45;;;;;;;7.00;2.30;;;15.70;67.70;;;;;;4227575;27;20090;-58
2021/06/19 06:06:48;;;;;;;6.75;2.03;;;15.70;67.40;;;;;;4224876;27;20092;-56
2021/06/19 06:08:50;;;;;;;5.38;2.13;;;15.70;67.10;;;;;;4225295;27;20664;-57
2021/06/19 06:10:53;;;;;;;5.03;1.90;;;15.70;67.20;;;;;;4205261;28;20038;-58
2021/06/19 06:12:56;;;;;;;7.47;1.75;;;15.70;66.80;;;;;;4226626;27;20036;-58
2021/06/19 06:14:59;;;;;;;5.65;1.67;;;15.70;67.20;;;;;;4222656;27;20781;-58
2021/06/19 06:17:01;;;;;;;4.97;1.83;;;15.70;67.30;;;;;;4222882;27;20555;-57
2021/06/19 06:19:04;;;;;;;4.18;1.67;;;15.70;67.20;;;;;;4225050;27;20435;-58
2021/06/19 06:21:07;;;;;;;6.18;1.90;;;15.70;66.70;;;;;;4227882;27;20132;-58
2021/06/19 06:23:09;;;;;;;5.75;1.95;;;15.70;67.00;;;;;;4220560;27;20055;-58
2021/06/19 06:25:12;;;;;;;6.13;1.85;;;15.70;66.60;;;;;;4221320;27;20147;-58
2021/06/19 06:27:14;;;;;;;6.53;1.95;;;15.70;66.90;;;;;;4223143;27;20030;-55
2021/06/19 06:29:16;;;;;;;6.18;2.00;;;15.70;66.60;;;;;;4226330;27;20118;-57
2021/06/19 06:31:18;;;;;;;4.75;2.35;;;15.70;66.70;;;;;;4220534;27;20212;-58
2021/06/19 06:33:22;;;;;;;6.00;2.00;;;15.70;66.90;;;;;;4226910;27;20015;-57
2021/06/19 06:35:24;;;;;;;5.07;1.83;;;15.70;66.40;;;;;;4228092;27;20046;-58
2021/06/19 06:37:26;;;;;;;5.10;1.90;;;15.70;67.00;;;;;;4208488;28;20496;-58
2021/06/19 06:39:29;;;;;;;3.92;1.80;;;15.70;67.20;;;;;;4228389;27;20130;-56
2021/06/19 06:41:32;;;;;;;5.30;1.83;;;15.60;66.60;;;;;;4221462;27;20386;-59
2021/06/19 06:43:34;;;;;;;4.22;1.98;;;15.60;66.80;;;;;;4223738;27;20035;-58
2021/06/19 06:45:36;;;;;;;7.05;1.90;;;15.60;66.70;;;;;;4226259;27;20031;-57
2021/06/19 06:47:39;;;;;;;6.45;1.90;;;15.60;67.00;;;;;;4205939;28;20534;-58
2021/06/19 06:49:42;;;;;;;5.68;2.10;;;15.60;66.80;;;;;;4218037;27;20396;-59
2021/06/19 06:51:44;;;;;;;5.35;2.00;;;15.60;66.90;;;;;;4227471;27;20027;-58
2021/06/19 06:53:46;;;;;;;5.20;2.10;;;15.60;67.00;;;;;;4223537;27;20514;-57
2021/06/19 06:55:48;;;;;;;5.75;2.30;;;15.60;66.90;;;;;;4224523;27;20116;-57
2021/06/19 06:57:51;;;;;;;4.85;2.20;;;15.60;66.70;;;;;;4217270;27;20051;-57
2021/06/19 06:59:53;;;;;;;8.00;2.10;;;15.60;66.80;;;;;;4222515;27;20578;-58
2021/06/19 07:01:57;;;;;;;4.78;1.85;;;15.50;66.90;;;;;;4223279;27;20035;-58
2021/06/19 07:04:00;;;;;;;5.68;2.00;;;15.50;66.60;;;;;;4223622;27;20392;-58
2021/06/19 07:06:02;;;;;;;9.68;2.50;;;15.50;66.90;;;;;;4223637;27;20503;-58
2021/06/19 07:08:05;;;;;;;5.17;2.13;;;15.50;66.80;;;;;;4226271;27;20026;-58
2021/06/19 07:10:10;;;;;;;4.22;2.17;;;15.50;67.00;;;;;;4222242;27;20450;-56
2021/06/19 07:12:12;;;;;;;4.90;2.10;;;15.50;66.60;;;;;;4212564;27;20149;-57
2021/06/19 07:14:15;;;;;;;5.18;1.95;;;15.50;66.60;;;;;;4209783;27;20379;-58
2021/06/19 07:16:17;;;;;;;7.80;2.53;;;15.50;66.80;;;;;;4229278;27;20023;-57
2021/06/19 07:18:19;;;;;;;5.75;2.42;;;15.50;66.70;;;;;;4229654;27;20027;-57
2021/06/19 07:20:21;;;;;;;6.43;2.22;;;15.50;66.60;;;;;;4236279;27;21716;-58
2021/06/19 07:22:23;;;;;;;5.57;2.30;;;15.50;66.60;;;;;;4233429;27;20121;-57
2021/06/19 07:24:25;;;;;;;6.60;2.50;;;15.50;66.70;;;;;;4231725;27;20066;-56
2021/06/19 07:26:27;;;;;;;9.15;2.80;;;15.50;66.50;;;;;;4232485;27;20023;-58
2021/06/19 07:28:30;;;;;;;5.22;2.28;;;15.50;66.90;;;;;;4236858;27;20433;-56
2021/06/19 07:30:32;;;;;;;10.38;3.08;;;15.50;66.80;;;;;;4230143;27;20114;-56
2021/06/19 07:32:35;;;;;;;8.07;2.42;;;15.50;66.90;;;;;;4234265;27;20050;-58
2021/06/19 07:34:37;;;;;;;8.52;2.50;;;15.50;66.70;;;;;;4233279;27;20027;-58
2021/06/19 07:36:41;;;;;;;8.55;2.60;;;15.50;66.80;;;;;;4231135;27;20119;-57
2021/06/19 07:38:43;;;;;;;9.85;2.70;;;15.50;66.60;;;;;;4234339;27;20111;-54
2021/06/19 07:40:45;;;;;;;7.45;2.83;;;15.40;66.80;;;;;;4211801;28;20110;-58
2021/06/19 07:42:47;;;;;;;11.40;3.83;;;15.50;67.00;;;;;;4234448;27;20448;-58
2021/06/19 07:44:50;;;;;;;12.00;3.85;;;15.50;67.60;;;;;;4229161;27;20075;-58
2021/06/19 07:46:53;;;;;;;7.03;3.40;;;15.50;68.10;;;;;;4228186;27;20034;-58
2021/06/19 07:48:55;;;;;;;11.07;3.92;;;15.50;68.40;;;;;;4231422;27;20030;-58
2021/06/19 07:50:57;;;;;;;11.23;4.07;;;15.50;69.00;;;;;;4234529;27;20031;-57
2021/06/19 07:52:59;;;;;;;12.25;4.68;;;15.50;69.50;;;;;;4231743;27;20417;-58
2021/06/19 07:55:02;;;;;;;7.63;3.30;;;15.50;69.60;;;;;;4230264;27;20035;-57
2021/06/19 07:57:06;;;;;;;11.18;4.40;;;15.50;69.60;;;;;;4230083;27;20035;-57
2021/06/19 07:59:08;;;;;;;12.98;4.60;;;15.50;69.50;;;;;;4238539;27;20015;-58
2021/06/19 08:01:10;;;;;;;14.02;4.18;;;15.50;69.40;;;;;;4230605;27;20058;-59
2021/06/19 08:03:12;;;;;;;9.63;4.28;;;15.50;69.30;;;;;;4232093;27;20096;-59
2021/06/19 08:05:14;;;;;;;7.60;3.38;;;15.50;69.30;;;;;;4228319;27;20223;-56
2021/06/19 08:07:17;;;;;;;9.48;3.78;;;15.50;69.30;;;;;;4237390;27;20079;-59
2021/06/19 08:09:19;;;;;;;10.95;3.65;;;15.50;69.10;;;;;;4233312;27;20485;-58
2021/06/19 08:11:26;;;;;;;8.38;3.63;;;15.50;69.10;;;;;;4232892;27;20035;-58
2021/06/19 08:13:28;;;;;;;11.25;3.63;;;15.50;69.00;;;;;;4228629;27;20073;-57
2021/06/19 08:15:31;;;;;;;12.20;3.80;;;15.50;68.90;;;;;;4232632;27;20019;-58
2021/06/19 08:17:34;;;;;;;8.90;3.58;;;15.50;68.10;;;;;;4227295;27;20080;-57
2021/06/19 08:19:36;;;;;;;9.45;3.47;;;15.50;68.70;;;;;;4230243;27;20047;-58
2021/06/19 08:21:38;;;;;;;9.25;3.42;;;15.50;68.40;;;;;;4225606;27;20134;-56
2021/06/19 08:23:41;;;;;;;7.53;3.40;;;15.40;68.50;;;;;;4227164;27;20038;-58
2021/06/19 08:25:43;;;;;;;8.85;3.15;;;15.50;68.30;;;;;;4224238;27;20567;-57
2021/06/19 08:27:45;;;;;;;9.48;3.35;;;15.50;68.30;;;;;;4227470;27;20392;-58
2021/06/19 08:29:47;;;;;;;7.88;3.28;;;15.50;68.10;;;;;;4230397;27;20019;-55
2021/06/19 08:31:51;;;;;;;8.32;3.38;;;15.50;68.30;;;;;;4227698;27;20043;-57
2021/06/19 08:33:54;;;;;;;9.55;3.38;;;15.40;68.30;;;;;;4229448;27;20472;-56
2021/06/19 08:35:56;;;;;;;9.33;3.57;;;15.40;68.20;;;;;;4225148;27;20108;-59
2021/06/19 08:37:58;;;;;;;10.00;3.28;;;15.40;68.10;;;;;;4225139;27;21305;-59
2021/06/19 08:40:00;;;;;;;6.97;3.00;;;15.40;68.00;;;;;;4226631;27;20038;-59
2021/06/19 08:42:02;;;;;;;8.05;3.08;;;15.40;67.50;;;;;;4227528;27;20163;-56
2021/06/19 08:44:06;;;;;;;6.43;2.78;;;15.40;67.70;;;;;;4225342;27;20587;-57
2021/06/19 08:46:10;;;;;;;5.88;3.00;;;15.40;67.90;;;;;;4229265;27;20027;-57
2021/06/19 08:48:11;;;;;;;;;;;15.40;67.70;;;;;;4225399;27;20023;-55
2021/06/19 08:50:15;;;;;;;7.63;2.72;;;15.40;67.70;;;;;;4224821;27;19923;-57
2021/06/19 08:52:17;;;;;;;;;;;15.40;67.50;;;;;;4230104;27;20046;-57
2021/06/19 08:54:22;;;;;;;6.57;3.00;;;15.40;67.50;;;;;;4224509;27;20396;-56
2021/06/19 08:56:24;;;;;;;7.10;2.90;;;15.40;67.80;;;;;;4210393;27;20278;-56
2021/06/19 08:58:26;;;;;;;5.65;2.67;;;15.40;67.70;;;;;;4225670;27;20042;-58
2021/06/19 09:00:28;;;;;;;7.85;2.67;;;15.40;67.60;;;;;;4227512;27;20847;-58
2021/06/19 09:02:31;;;;;;;8.23;2.80;;;15.40;67.50;;;;;;4227710;27;20050;-57
2021/06/19 09:04:55;;;;;;;7.23;3.33;;;15.40;67.30;;;;;;4225425;27;20050;-57
2021/06/19 09:06:58;;;;;;;6.20;2.50;;;15.40;67.00;;;;;;4226691;27;20487;-57
2021/06/19 09:09:14;;;;;;;8.52;3.40;;;15.40;67.30;;;;;;4223529;27;20530;-57
2021/06/19 09:11:32;;;;;;;5.93;2.60;;;15.40;67.40;;;;;;4226881;27;20027;-57
2021/06/19 09:13:34;;;;;;;6.53;2.90;;;15.40;67.30;;;;;;4229092;27;20098;-58
2021/06/19 09:15:42;;;;;;;6.95;2.53;;;15.40;67.40;;;;;;4223116;27;20024;-58
2021/06/19 09:17:44;;;;;;;8.82;3.33;;;15.30;68.00;;;;;;4226699;27;20035;-58
2021/06/19 09:19:47;;;;;;;6.53;2.70;;;15.40;67.70;;;;;;4221139;27;20362;-57
2021/06/19 09:21:49;;;;;;;6.80;3.28;;;15.30;68.00;;;;;;4223574;27;20268;-57
2021/06/19 09:23:51;;;;;;;6.80;2.75;;;15.40;67.20;;;;;;4211008;28;20141;-55
2021/06/19 09:26:11;;;;;;;11.60;3.10;;;15.40;67.80;;;;;;4207714;27;20127;-56
2021/06/19 09:28:13;;;;;;;5.80;2.85;;;15.30;68.30;;;;;;4222534;27;20019;-58
2021/06/19 09:30:21;;;;;;;5.85;2.50;;;15.30;68.20;;;;;;4227048;27;20031;-57
2021/06/19 09:32:32;;;;;;;8.75;2.58;;;15.40;68.30;;;;;;4221948;27;20673;-58
2021/06/19 09:34:35;;;;;;;12.73;3.33;;;15.40;68.50;;;;;;4230921;27;20487;-58
2021/06/19 09:36:44;;;;;;;18.30;3.30;;;15.40;68.50;;;;;;4223638;27;20558;-57
2021/06/19 09:39:07;;;;;;;10.98;3.05;;;15.40;68.40;;;;;;4209687;27;20035;-58
2021/06/19 09:41:09;;;;;;;10.88;2.75;;;15.40;68.20;;;;;;4242467;27;20034;-57
2021/06/19 09:43:20;;;;;;;6.82;2.83;;;15.40;68.00;;;;;;4237949;27;20046;-56
2021/06/19 09:45:24;;;;;;;9.90;2.80;;;15.50;67.90;;;;;;4232073;27;20728;-56
2021/06/19 09:47:26;;;;;;;6.97;2.58;;;15.50;67.70;;;;;;4232154;27;20041;-59
2021/06/19 09:49:35;;;;;;;18.25;3.70;;;15.50;67.70;;;;;;4224390;27;20323;-55
2021/06/19 09:51:43;;;;;;;13.73;3.28;;;15.50;67.70;;;;;;4224896;27;20039;-54
2021/06/19 09:53:53;;;;;;;7.32;2.65;;;15.50;67.80;;;;;;4224791;27;20024;-57
2021/06/19 09:56:09;;;;;;;15.48;2.45;;;15.50;67.80;;;;;;4226763;27;20199;-59
2021/06/19 09:58:45;;;;;;;9.73;2.88;;;15.50;67.80;;;;;;4208111;28;20481;-56
2021/06/19 10:00:47;;;;;;;10.35;2.50;;;15.50;67.90;;;;;;4226464;27;20480;-58
2021/06/19 10:02:50;;;;;;;8.82;2.50;;;15.60;67.80;;;;;;4222616;27;20613;-58
2021/06/19 10:04:56;;;;;;;6.95;2.47;;;15.50;67.90;;;;;;4224736;27;20084;-58
2021/06/19 10:07:00;;;;;;;7.70;2.42;;;15.60;67.90;;;;;;4225010;27;20191;-58
2021/06/19 10:09:03;;;;;;;6.85;2.28;;;15.60;68.00;;;;;;4227494;27;20171;-57
2021/06/19 10:11:05;;;;;;;8.65;2.30;;;15.60;68.00;;;;;;4226174;27;20031;-56
2021/06/19 10:13:07;;;;;;;9.98;2.50;;;15.60;68.00;;;;;;4207455;28;20035;-54
2021/06/19 10:15:11;;;;;;;10.10;2.90;;;15.60;68.10;;;;;;4224543;27;20035;-57
2021/06/19 10:17:17;;;;;;;5.20;2.25;;;15.60;68.00;;;;;;4203948;28;20217;-57
2021/06/19 10:19:22;;;;;;;8.60;2.30;;;15.60;68.10;;;;;;4220934;27;20398;-56
2021/06/19 10:21:26;;;;;;;6.63;2.42;;;15.60;68.00;;;;;;4225700;27;20103;-57
2021/06/19 10:23:28;;;;;;;6.57;2.95;;;15.60;68.20;;;;;;4223665;27;20149;-55
2021/06/19 10:25:32;;;;;;;7.32;2.35;;;15.60;68.20;;;;;;4224322;27;20023;-57
2021/06/19 10:27:40;;;;;;;8.18;2.80;;;15.60;68.30;;;;;;4219355;27;20031;-54
2021/06/19 10:29:42;;;;;;;4.65;2.28;;;15.60;68.20;;;;;;4203984;28;20119;-58
2021/06/19 10:31:51;;;;;;;8.43;2.30;;;15.60;68.10;;;;;;4224490;27;20828;-55
2021/06/19 10:33:57;;;;;;;5.82;2.50;;;15.60;68.20;;;;;;4224228;27;20742;-57
2021/06/19 10:36:02;;;;;;;8.48;2.28;;;15.60;68.10;;;;;;4223565;27;20034;-57
2021/06/19 10:38:20;;;;;;;5.10;1.85;;;15.60;69.00;;;;;;4227170;27;20327;-58
2021/06/19 10:40:26;;;;;;;5.72;2.20;;;15.70;68.20;;;;;;4225877;27;20024;-59
2021/06/19 10:42:34;;;;;;;6.28;2.25;;;15.70;68.10;;;;;;4225120;27;20144;-55
2021/06/19 10:44:54;;;;;;;8.40;2.17;;;15.60;68.20;;;;;;4224718;27;20137;-58
2021/06/19 10:47:02;;;;;;;5.43;2.22;;;15.70;68.30;;;;;;4226880;27;20027;-55